Time;durP1;ratioP1;P1;durP2;ratioP2;P2;SDS_P1;SDS_P2;PMS_P1;PMS_P2;Temp;Humidity;BMP_temperature;BMP_pressure;BME280_temperature;BME280_humidity;BME280_pressure;Samples;Min_cycle;Max_cycle;Signal;HPM_P1;HPM_P2
2023/06/12 00:01:46;;;;;;;10.32;3.08;;;18.60;81.70;;;;;;5069133;28;20040;-66
2023/06/12 00:04:12;;;;;;;8.50;3.30;;;18.60;81.90;;;;;;5086439;28;20058;-65
2023/06/12 00:06:38;;;;;;;6.88;3.05;;;18.60;82.30;;;;;;5063898;28;20071;-68
2023/06/12 00:09:05;;;;;;;7.07;3.05;;;18.50;82.70;;;;;;5066211;28;20597;-64
2023/06/12 00:11:31;;;;;;;8.93;2.97;;;18.50;82.90;;;;;;5066222;28;20595;-66
2023/06/12 00:13:56;;;;;;;9.68;3.17;;;18.40;83.20;;;;;;5083073;28;20124;-65
2023/06/12 00:16:22;;;;;;;7.78;2.90;;;18.40;83.50;;;;;;5066267;28;20244;-67
2023/06/12 00:18:49;;;;;;;10.70;3.55;;;18.30;83.70;;;;;;5049373;28;20137;-68
2023/06/12 00:21:15;;;;;;;8.48;2.60;;;18.30;84.10;;;;;;5048275;28;20037;-67
2023/06/12 00:23:41;;;;;;;8.77;3.17;;;18.20;84.10;;;;;;5065239;28;20063;-65
2023/06/12 00:26:08;;;;;;;9.35;3.47;;;18.20;84.40;;;;;;5049680;28;20247;-67
2023/06/12 00:28:35;;;;;;;8.77;3.28;;;18.20;84.70;;;;;;5051404;28;20120;-66
2023/06/12 00:31:01;;;;;;;7.82;3.17;;;18.10;84.90;;;;;;5068755;28;20039;-66
2023/06/12 00:33:27;;;;;;;9.63;3.00;;;18.10;85.70;;;;;;5085622;28;20042;-66
2023/06/12 00:35:53;;;;;;;10.02;3.30;;;18.10;85.50;;;;;;5064478;28;20073;-64
2023/06/12 00:38:20;;;;;;;13.88;3.22;;;18.10;85.80;;;;;;5048514;28;20040;-66
2023/06/12 00:40:46;;;;;;;10.25;3.20;;;17.90;86.20;;;;;;5049036;28;20527;-68
2023/06/12 00:43:13;;;;;;;8.95;2.90;;;17.90;86.60;;;;;;5067920;28;20039;-64
2023/06/12 00:45:39;;;;;;;8.90;3.25;;;17.80;86.70;;;;;;5068377;28;20047;-63
2023/06/12 00:48:06;;;;;;;7.32;2.63;;;17.80;87.10;;;;;;5083995;28;20039;-65
2023/06/12 00:50:33;;;;;;;10.38;3.22;;;17.80;87.40;;;;;;5067501;28;20051;-66
2023/06/12 00:53:00;;;;;;;9.30;3.28;;;17.70;87.50;;;;;;5058434;28;20079;-67
2023/06/12 00:55:28;;;;;;;11.80;3.60;;;17.70;87.60;;;;;;5068378;28;20117;-67
2023/06/12 00:57:53;;;;;;;8.68;3.28;;;17.80;87.80;;;;;;5068365;28;20404;-66
2023/06/12 01:00:20;;;;;;;8.30;2.92;;;17.70;88.00;;;;;;5081683;28;20059;-66
2023/06/12 01:02:50;;;;;;;10.57;3.55;;;17.70;88.30;;;;;;5083466;28;20032;-66
2023/06/12 01:05:22;;;;;;;8.75;3.10;;;17.70;88.70;;;;;;5068386;28;20047;-65
2023/06/12 01:08:05;;;;;;;8.93;3.47;;;17.50;89.00;;;;;;5065910;28;20040;-65
2023/06/12 01:10:44;;;;;;;10.15;3.47;;;17.50;89.80;;;;;;5081818;28;20048;-67
2023/06/12 01:13:11;;;;;;;13.52;3.25;;;17.40;90.10;;;;;;5063887;28;20054;-69
2023/06/12 01:15:38;;;;;;;8.68;3.40;;;17.30;90.30;;;;;;5058149;28;20044;-65
2023/06/12 01:18:06;;;;;;;10.30;3.55;;;17.30;90.60;;;;;;5068170;28;20123;-66
2023/06/12 01:20:34;;;;;;;12.23;3.42;;;17.20;90.80;;;;;;5065748;28;20033;-66
2023/06/12 01:23:09;;;;;;;9.85;3.60;;;17.10;91.00;;;;;;5067192;28;20064;-64
2023/06/12 01:25:56;;;;;;;13.13;3.60;;;17.10;91.40;;;;;;5068153;28;20043;-64
2023/06/12 01:29:19;;;;;;;9.13;3.40;;;17.10;91.50;;;;;;5063578;28;20494;-67
2023/06/12 01:31:56;;;;;;;11.43;3.53;;;17.10;92.00;;;;;;4989388;28;20048;-65
2023/06/12 01:34:29;;;;;;;11.60;3.70;;;17.10;91.60;;;;;;4990265;28;20042;-66
2023/06/12 01:37:35;;;;;;;8.60;2.80;;;17.00;91.70;;;;;;5057344;28;20130;-66
2023/06/12 01:40:08;;;;;;;10.73;3.95;;;17.00;92.30;;;;;;5022043;28;20042;-66
2023/06/12 01:42:34;;;;;;;11.52;3.47;;;17.00;92.20;;;;;;5004300;28;20566;-66
2023/06/12 01:45:00;;;;;;;9.27;2.92;;;16.90;92.40;;;;;;5024711;28;20052;-66
2023/06/12 01:47:26;;;;;;;8.75;3.53;;;16.90;92.70;;;;;;5064057;28;20507;-64
2023/06/12 01:49:51;;;;;;;13.27;3.38;;;16.80;93.10;;;;;;5048235;28;20102;-64
2023/06/12 01:52:17;;;;;;;10.15;3.42;;;16.80;93.20;;;;;;5045496;28;20123;-64
2023/06/12 01:54:49;;;;;;;9.55;3.35;;;16.70;93.50;;;;;;5047647;28;20598;-67
2023/06/12 01:57:21;;;;;;;15.52;3.70;;;16.70;93.60;;;;;;5061899;28;20074;-64
2023/06/12 01:59:48;;;;;;;11.55;3.22;;;16.60;93.90;;;;;;5083039;28;20059;-67
2023/06/12 02:02:15;;;;;;;8.13;3.65;;;16.60;94.20;;;;;;5083541;28;20051;-68
2023/06/12 02:04:41;;;;;;;10.60;3.60;;;16.50;94.50;;;;;;5067857;28;20050;-68
2023/06/12 02:07:07;;;;;;;11.02;3.88;;;16.50;94.90;;;;;;5050479;28;20048;-67
2023/06/12 02:09:33;;;;;;;17.23;3.83;;;16.40;95.30;;;;;;5047469;28;20048;-65
2023/06/12 02:12:00;;;;;;;13.38;3.67;;;16.30;95.60;;;;;;5047442;28;20043;-66
2023/06/12 02:14:27;;;;;;;9.80;3.40;;;16.30;95.90;;;;;;5047502;28;20393;-65
2023/06/12 02:16:53;;;;;;;10.82;3.50;;;16.30;96.10;;;;;;5047229;28;20067;-65
2023/06/12 02:19:25;;;;;;;10.30;3.60;;;16.20;96.20;;;;;;5063981;28;20087;-67
2023/06/12 02:21:54;;;;;;;9.40;4.20;;;16.30;96.50;;;;;;5061354;28;20044;-68
2023/06/12 02:24:25;;;;;;;10.30;3.67;;;16.20;96.40;;;;;;5047370;28;20040;-67
2023/06/12 02:26:51;;;;;;;11.40;3.95;;;16.30;96.50;;;;;;5046908;28;20063;-66
2023/06/12 02:29:17;;;;;;;12.43;3.92;;;16.30;96.50;;;;;;5054935;28;20036;-64
2023/06/12 02:31:42;;;;;;;12.70;4.00;;;16.30;96.60;;;;;;5083204;28;20085;-66
2023/06/12 02:34:08;;;;;;;7.60;3.40;;;16.20;96.80;;;;;;5083782;28;20044;-65
2023/06/12 02:36:34;;;;;;;11.20;4.13;;;16.20;97.00;;;;;;5062395;28;20409;-67
2023/06/12 02:39:02;;;;;;;11.70;4.35;;;16.10;97.20;;;;;;5062984;28;20052;-66
2023/06/12 02:41:28;;;;;;;14.98;4.00;;;16.10;97.40;;;;;;5063694;28;20123;-64
2023/06/12 02:43:54;;;;;;;14.05;4.45;;;16.10;97.70;;;;;;5063764;28;20123;-66
2023/06/12 02:46:20;;;;;;;9.07;3.95;;;16.00;98.10;;;;;;5073249;28;20043;-66
2023/06/12 02:48:46;;;;;;;10.23;3.90;;;15.90;98.40;;;;;;5057196;28;20044;-66
2023/06/12 02:51:12;;;;;;;9.40;3.78;;;15.90;98.60;;;;;;5060344;28;20530;-65
2023/06/12 02:53:37;;;;;;;11.30;4.28;;;15.80;98.90;;;;;;5059070;28;20051;-67
2023/06/12 02:56:03;;;;;;;10.40;4.13;;;15.80;99.30;;;;;;5066301;28;20091;-65
2023/06/12 02:58:29;;;;;;;12.45;3.83;;;15.80;99.60;;;;;;5064306;28;20124;-66
2023/06/12 03:00:56;;;;;;;13.18;4.28;;;15.70;99.90;;;;;;5079097;28;20409;-66
2023/06/12 03:03:22;;;;;;;12.30;4.47;;;15.60;99.90;;;;;;5066467;28;20507;-67
2023/06/12 03:05:49;;;;;;;10.63;4.30;;;15.60;99.90;;;;;;5063495;28;20048;-66
2023/06/12 03:08:16;;;;;;;10.38;3.97;;;15.40;99.90;;;;;;5062607;28;20232;-65
2023/06/12 03:10:42;;;;;;;10.90;4.53;;;15.40;99.90;;;;;;5066663;28;20621;-66
2023/06/12 03:13:08;;;;;;;19.58;4.47;;;15.40;99.90;;;;;;5065705;28;20557;-67
2023/06/12 03:15:34;;;;;;;11.35;3.85;;;15.40;99.90;;;;;;5065805;28;20044;-66
2023/06/12 03:18:00;;;;;;;10.35;4.40;;;15.30;99.90;;;;;;5066156;28;20121;-64
2023/06/12 03:20:26;;;;;;;11.18;4.63;;;15.30;99.90;;;;;;5061277;28;20047;-66
2023/06/12 03:22:53;;;;;;;10.90;4.60;;;15.30;99.90;;;;;;5078372;28;20709;-65
2023/06/12 03:25:19;;;;;;;14.13;4.32;;;15.20;99.90;;;;;;5083333;28;20698;-64
2023/06/12 03:27:49;;;;;;;10.80;4.07;;;15.20;99.90;;;;;;5072680;28;20041;-63
2023/06/12 03:30:15;;;;;;;12.40;4.32;;;15.20;99.90;;;;;;5053696;28;20807;-66
2023/06/12 03:32:41;;;;;;;9.93;4.32;;;15.20;99.90;;;;;;5082294;28;20113;-64
2023/06/12 03:35:07;;;;;;;13.35;4.95;;;15.20;99.90;;;;;;5066137;28;20040;-66
2023/06/12 03:37:32;;;;;;;12.07;4.80;;;15.20;99.90;;;;;;5067070;28;20040;-66
2023/06/12 03:39:58;;;;;;;11.60;4.80;;;15.30;99.90;;;;;;5083325;28;20044;-65
2023/06/12 03:42:24;;;;;;;14.18;5.05;;;15.30;99.90;;;;;;5082862;28;20135;-65
2023/06/12 03:44:50;;;;;;;15.57;5.22;;;15.40;99.90;;;;;;5065418;28;20483;-66
2023/06/12 03:47:16;;;;;;;18.30;4.93;;;15.30;99.90;;;;;;5062003;28;20295;-65
2023/06/12 03:49:42;;;;;;;15.40;4.72;;;15.30;99.90;;;;;;5058008;28;20555;-67
2023/06/12 03:52:08;;;;;;;15.23;4.57;;;15.40;99.90;;;;;;5067452;28;20056;-65
2023/06/12 03:54:34;;;;;;;15.60;4.40;;;15.40;99.90;;;;;;5063335;28;20052;-66
2023/06/12 03:57:00;;;;;;;14.20;5.10;;;15.50;99.90;;;;;;5046129;28;20048;-66
2023/06/12 03:59:26;;;;;;;20.63;4.80;;;15.60;99.90;;;;;;5045896;28;20048;-66
2023/06/12 04:01:53;;;;;;;11.68;4.72;;;15.70;99.90;;;;;;5062137;28;20036;-68
2023/06/12 04:04:19;;;;;;;14.93;4.85;;;15.80;99.90;;;;;;5046300;28;20093;-68
2023/06/12 04:06:46;;;;;;;11.52;4.60;;;15.90;99.90;;;;;;5049302;28;20041;-65
2023/06/12 04:09:15;;;;;;;11.82;4.32;;;15.90;99.90;;;;;;5049791;28;20508;-68
2023/06/12 04:11:42;;;;;;;12.25;4.80;;;16.00;99.90;;;;;;5049522;28;20052;-66
2023/06/12 04:14:08;;;;;;;16.50;4.85;;;16.10;99.90;;;;;;5055642;28;20639;-66
2023/06/12 04:16:34;;;;;;;14.68;4.82;;;16.10;99.90;;;;;;5069582;28;20058;-67
2023/06/12 04:19:03;;;;;;;9.88;4.53;;;16.10;99.90;;;;;;5070023;28;20613;-67
2023/06/12 04:21:32;;;;;;;10.57;4.70;;;16.00;99.90;;;;;;5065580;28;20500;-66
2023/06/12 04:24:01;;;;;;;14.35;5.28;;;16.00;99.90;;;;;;5068823;28;20036;-63
2023/06/12 04:26:27;;;;;;;11.70;5.28;;;16.00;99.90;;;;;;5069668;28;20113;-68
2023/06/12 04:28:54;;;;;;;13.32;5.40;;;16.10;99.90;;;;;;5081390;28;20043;-67
2023/06/12 04:31:21;;;;;;;15.35;5.32;;;16.10;99.90;;;;;;5065706;28;20640;-67
2023/06/12 04:33:51;;;;;;;15.93;5.03;;;16.20;99.90;;;;;;5065759;28;20075;-65
2023/06/12 04:36:17;;;;;;;17.73;6.65;;;16.20;99.90;;;;;;5049282;28;20075;-68
2023/06/12 04:38:45;;;;;;;15.68;5.55;;;16.30;99.90;;;;;;5048415;28;20419;-66
2023/06/12 04:41:11;;;;;;;13.05;5.07;;;16.40;99.90;;;;;;5070358;28;20047;-67
2023/06/12 04:43:36;;;;;;;10.98;5.50;;;16.50;99.90;;;;;;5068282;28;20087;-69
2023/06/12 04:46:05;;;;;;;18.33;5.65;;;16.60;99.90;;;;;;5085789;28;20393;-65
2023/06/12 04:48:31;;;;;;;13.27;5.00;;;16.70;99.90;;;;;;5048979;28;20048;-64
2023/06/12 04:50:58;;;;;;;15.88;6.07;;;16.80;99.90;;;;;;5056624;28;20431;-65
2023/06/12 04:53:30;;;;;;;51.95;7.63;;;16.90;99.90;;;;;;5056370;28;20110;-65
2023/06/12 04:56:00;;;;;;;16.52;4.97;;;16.90;99.90;;;;;;5068374;28;20546;-64
2023/06/12 04:58:26;;;;;;;10.70;4.90;;;16.90;99.90;;;;;;5066930;28;20546;-65
2023/06/12 05:00:55;;;;;;;11.77;5.32;;;17.00;99.90;;;;;;5084101;28;20050;-64
2023/06/12 05:03:22;;;;;;;14.73;5.55;;;17.10;99.90;;;;;;5085446;28;20487;-66
2023/06/12 05:05:48;;;;;;;11.63;5.25;;;17.40;99.90;;;;;;5071256;28;20574;-66
2023/06/12 05:08:15;;;;;;;10.93;5.72;;;17.40;99.90;;;;;;5082127;28;20028;-65
2023/06/12 05:10:41;;;;;;;10.90;5.25;;;17.40;99.90;;;;;;5068231;28;20071;-67
2023/06/12 05:13:07;;;;;;;11.98;5.15;;;17.40;99.90;;;;;;5066419;28;20162;-66
2023/06/12 05:15:32;;;;;;;11.13;5.30;;;17.50;99.90;;;;;;5065667;28;20114;-66
2023/06/12 05:17:58;;;;;;;12.32;5.18;;;17.60;99.90;;;;;;5084333;28;20112;-65
2023/06/12 05:20:25;;;;;;;10.82;6.10;;;17.90;99.90;;;;;;5066835;28;20040;-65
2023/06/12 05:22:51;;;;;;;14.80;5.03;;;18.20;99.90;;;;;;5065744;28;20043;-67
2023/06/12 05:25:17;;;;;;;13.05;5.47;;;18.30;99.90;;;;;;5067822;28;20720;-66
2023/06/12 05:27:43;;;;;;;13.43;6.15;;;18.60;99.90;;;;;;5084384;28;20043;-64
2023/06/12 05:30:09;;;;;;;16.52;6.03;;;18.70;99.90;;;;;;5080634;28;20059;-68
2023/06/12 05:32:35;;;;;;;13.57;5.00;;;18.90;99.90;;;;;;5067044;28;20044;-64
2023/06/12 05:35:02;;;;;;;11.93;5.70;;;19.20;99.90;;;;;;5083955;28;20035;-67
2023/06/12 05:37:28;;;;;;;14.05;5.70;;;19.00;99.90;;;;;;5064868;28;20036;-65
2023/06/12 05:39:54;;;;;;;12.48;5.70;;;18.90;99.90;;;;;;5065321;28;20040;-64
2023/06/12 05:42:20;;;;;;;11.40;4.80;;;18.70;99.90;;;;;;5075134;28;20039;-63
2023/06/12 05:44:46;;;;;;;18.35;5.18;;;18.50;99.90;;;;;;5082169;28;20047;-67
2023/06/12 05:47:13;;;;;;;18.52;6.07;;;18.70;99.90;;;;;;5082673;28;20551;-65
2023/06/12 05:49:38;;;;;;;15.40;5.82;;;18.70;99.90;;;;;;5075892;28;20459;-66
2023/06/12 05:52:06;;;;;;;17.42;5.90;;;18.70;99.90;;;;;;5089723;28;20132;-64
2023/06/12 05:54:31;;;;;;;9.25;5.40;;;18.70;99.90;;;;;;5084699;28;20094;-66
2023/06/12 05:56:57;;;;;;;14.90;6.07;;;18.60;99.90;;;;;;5084343;28;20075;-65
2023/06/12 05:59:23;;;;;;;12.68;5.60;;;18.60;99.90;;;;;;5059196;28;20065;-66
2023/06/12 06:01:49;;;;;;;12.32;6.10;;;18.70;99.90;;;;;;5047177;28;20040;-62
2023/06/12 06:04:16;;;;;;;14.52;5.18;;;18.80;99.90;;;;;;5075597;28;20039;-65
2023/06/12 06:06:42;;;;;;;15.40;5.78;;;18.90;99.90;;;;;;5056918;28;20067;-64
2023/06/12 06:09:08;;;;;;;15.15;5.93;;;19.20;99.90;;;;;;5079102;28;20355;-68
2023/06/12 06:11:33;;;;;;;15.55;5.68;;;19.30;99.90;;;;;;5084559;28;20169;-65
2023/06/12 06:13:59;;;;;;;13.65;6.10;;;19.30;99.70;;;;;;5061187;28;20056;-65
2023/06/12 06:16:26;;;;;;;18.83;6.55;;;19.30;99.50;;;;;;5047777;28;20048;-67
2023/06/12 06:18:52;;;;;;;13.68;5.93;;;19.20;99.50;;;;;;5047829;28;20752;-70
2023/06/12 06:21:18;;;;;;;10.80;5.65;;;19.20;99.50;;;;;;5062231;28;20044;-64
2023/06/12 06:23:44;;;;;;;13.23;5.70;;;19.20;99.80;;;;;;5064518;28;20040;-68
2023/06/12 06:26:10;;;;;;;14.20;5.90;;;19.30;99.60;;;;;;5064303;28;20047;-67
2023/06/12 06:28:36;;;;;;;17.23;6.32;;;19.40;99.50;;;;;;5067706;28;20089;-66
2023/06/12 06:31:03;;;;;;;14.95;6.15;;;19.40;99.60;;;;;;5046214;28;20496;-68
2023/06/12 06:33:30;;;;;;;13.43;5.95;;;19.50;99.20;;;;;;5047425;28;20126;-67
2023/06/12 06:35:56;;;;;;;11.70;5.90;;;19.50;99.20;;;;;;5045769;28;20105;-65
2023/06/12 06:38:24;;;;;;;10.75;5.70;;;19.50;99.20;;;;;;5062898;28;20681;-64
2023/06/12 06:40:51;;;;;;;13.57;5.80;;;19.50;99.20;;;;;;5046947;28;20048;-67
2023/06/12 06:43:16;;;;;;;13.98;6.20;;;19.70;99.30;;;;;;5067052;28;20145;-68
2023/06/12 06:45:42;;;;;;;12.80;5.72;;;19.70;99.00;;;;;;5071588;28;20523;-70
2023/06/12 06:48:09;;;;;;;15.93;6.20;;;19.70;98.80;;;;;;5079856;28;20466;-67
2023/06/12 06:50:35;;;;;;;13.50;6.38;;;19.80;98.80;;;;;;5064510;28;20039;-65
2023/06/12 06:53:02;;;;;;;14.10;5.72;;;20.00;98.70;;;;;;5064809;28;20044;-68
2023/06/12 06:55:28;;;;;;;13.35;5.90;;;20.10;98.90;;;;;;5083190;28;20055;-66
2023/06/12 06:57:54;;;;;;;14.63;6.40;;;20.30;98.70;;;;;;5075660;28;20403;-67
2023/06/12 07:00:21;;;;;;;17.95;6.35;;;20.40;98.30;;;;;;5064962;28;20109;-67
2023/06/12 07:02:50;;;;;;;14.93;6.10;;;20.40;98.20;;;;;;5065314;28;20042;-71
2023/06/12 07:05:16;;;;;;;15.82;6.28;;;20.40;98.00;;;;;;5083243;28;20044;-67
2023/06/12 07:07:47;;;;;;;13.77;6.47;;;20.40;98.00;;;;;;5065641;28;20088;-67
2023/06/12 07:10:13;;;;;;;14.15;5.85;;;20.50;98.20;;;;;;5067042;28;20507;-66
2023/06/12 07:12:39;;;;;;;16.13;6.68;;;20.50;97.90;;;;;;5067085;28;20057;-65
2023/06/12 07:15:05;;;;;;;15.45;5.93;;;20.50;97.50;;;;;;5057944;28;20047;-66
2023/06/12 07:17:32;;;;;;;12.98;6.15;;;20.60;97.90;;;;;;5063365;28;20579;-65
2023/06/12 07:19:57;;;;;;;12.30;6.40;;;20.70;97.70;;;;;;5063173;28;20063;-67
2023/06/12 07:22:23;;;;;;;10.70;5.78;;;20.70;97.40;;;;;;5061048;28;20495;-67
2023/06/12 07:24:49;;;;;;;12.10;5.65;;;20.80;97.50;;;;;;5063250;28;20040;-68
2023/06/12 07:27:15;;;;;;;12.23;6.20;;;20.80;97.60;;;;;;5065508;28;20051;-65
2023/06/12 07:29:41;;;;;;;11.68;5.90;;;21.00;97.30;;;;;;5073240;28;20488;-66
2023/06/12 07:32:09;;;;;;;14.38;5.93;;;21.10;97.30;;;;;;5046278;28;20047;-65
2023/06/12 07:34:35;;;;;;;15.40;6.40;;;21.20;97.20;;;;;;5063197;28;20194;-66
2023/06/12 07:37:02;;;;;;;15.00;6.70;;;21.30;97.10;;;;;;5066447;28;20155;-67
2023/06/12 07:39:28;;;;;;;18.02;6.65;;;21.30;96.90;;;;;;5083954;28;20043;-70
2023/06/12 07:41:54;;;;;;;14.50;5.93;;;21.30;96.70;;;;;;5067178;28;20086;-62
2023/06/12 07:44:21;;;;;;;19.15;6.25;;;21.30;97.00;;;;;;5079571;28;20036;-66
2023/06/12 07:46:46;;;;;;;15.75;6.55;;;21.40;96.60;;;;;;5086648;28;20048;-66
2023/06/12 07:49:14;;;;;;;10.73;5.72;;;21.40;96.60;;;;;;5087043;28;20054;-67
2023/06/12 07:51:40;;;;;;;14.23;6.28;;;21.40;96.80;;;;;;5061017;28;20053;-66
2023/06/12 07:54:06;;;;;;;13.02;6.32;;;21.50;96.50;;;;;;5049903;28;20048;-66
2023/06/12 07:56:32;;;;;;;13.23;6.43;;;21.50;96.60;;;;;;5050238;28;20078;-68
2023/06/12 07:59:09;;;;;;;15.45;6.70;;;21.60;96.50;;;;;;5066654;28;20059;-65
2023/06/12 08:01:36;;;;;;;14.25;6.35;;;21.60;96.30;;;;;;5066377;28;20131;-68
2023/06/12 08:04:05;;;;;;;12.30;6.47;;;21.70;96.50;;;;;;5060946;28;20063;-65
2023/06/12 08:06:34;;;;;;;13.07;6.43;;;21.90;96.50;;;;;;5063638;28;20040;-67
2023/06/12 08:09:00;;;;;;;13.80;6.88;;;22.00;95.80;;;;;;5084564;28;20039;-67
2023/06/12 08:11:26;;;;;;;12.43;6.20;;;22.00;95.30;;;;;;5086248;28;20479;-65
2023/06/12 08:13:52;;;;;;;11.68;5.72;;;22.10;95.50;;;;;;5066527;28;20475;-65
2023/06/12 08:16:18;;;;;;;12.00;5.90;;;22.30;95.20;;;;;;5069054;28;20032;-65
2023/06/12 08:18:45;;;;;;;11.88;6.28;;;22.30;94.60;;;;;;5084716;28;20128;-67
2023/06/12 08:21:10;;;;;;;11.93;6.00;;;22.40;94.70;;;;;;5080047;28;20507;-65
2023/06/12 08:23:36;;;;;;;13.50;6.22;;;22.60;94.60;;;;;;5085546;28;20032;-66
2023/06/12 08:26:04;;;;;;;11.65;5.50;;;22.70;94.10;;;;;;5068230;28;20036;-64
2023/06/12 08:28:30;;;;;;;15.07;6.30;;;22.90;94.20;;;;;;5069179;28;20503;-67
2023/06/12 08:30:57;;;;;;;12.32;5.90;;;22.90;93.90;;;;;;5085201;28;20117;-65
2023/06/12 08:33:24;;;;;;;12.82;5.65;;;22.90;93.50;;;;;;5082868;28;20126;-64
2023/06/12 08:35:49;;;;;;;13.88;6.63;;;22.90;93.50;;;;;;5083372;28;20035;-64
2023/06/12 08:38:15;;;;;;;12.15;5.93;;;23.00;93.50;;;;;;5084270;28;20674;-63
2023/06/12 08:40:41;;;;;;;12.25;6.03;;;23.00;93.00;;;;;;5085100;28;20035;-68
2023/06/12 08:43:07;;;;;;;17.15;7.30;;;23.00;92.90;;;;;;5069536;28;20048;-69
2023/06/12 08:45:37;;;;;;;13.55;5.68;;;23.00;93.10;;;;;;5067874;28;20769;-66
2023/06/12 08:48:05;;;;;;;12.50;5.90;;;23.10;93.30;;;;;;5065025;28;20050;-68
2023/06/12 08:50:32;;;;;;;12.07;5.60;;;23.10;92.90;;;;;;5073772;28;20035;-67
2023/06/12 08:52:58;;;;;;;13.73;5.93;;;23.20;93.00;;;;;;5048936;28;20055;-65
2023/06/12 08:55:25;;;;;;;15.15;6.03;;;23.30;92.90;;;;;;5084722;28;20047;-67
2023/06/12 08:57:51;;;;;;;14.80;5.72;;;23.40;92.80;;;;;;5085840;28;20508;-68
2023/06/12 09:00:17;;;;;;;10.23;5.50;;;23.50;92.90;;;;;;5082480;28;20048;-67
2023/06/12 09:02:53;;;;;;;10.95;5.72;;;23.70;92.90;;;;;;5068429;28;20544;-66
2023/06/12 09:05:30;;;;;;;14.48;5.45;;;23.80;92.40;;;;;;5067458;28;20040;-67
2023/06/12 09:08:06;;;;;;;11.48;5.45;;;24.00;91.90;;;;;;5083206;28;20044;-66
2023/06/12 09:10:38;;;;;;;13.18;6.38;;;23.90;92.00;;;;;;5085558;28;20495;-68
2023/06/12 09:13:09;;;;;;;13.60;6.18;;;23.80;91.90;;;;;;5085713;28;20043;-65
2023/06/12 09:15:37;;;;;;;13.70;5.47;;;23.80;92.40;;;;;;5066077;28;20071;-68
2023/06/12 09:18:07;;;;;;;14.82;5.93;;;23.80;91.80;;;;;;5085297;28;20056;-67
2023/06/12 09:20:33;;;;;;;12.88;5.93;;;23.70;91.50;;;;;;5048077;28;20049;-66
2023/06/12 09:23:06;;;;;;;10.32;5.97;;;23.80;91.00;;;;;;5047306;28;20040;-72
2023/06/12 09:25:37;;;;;;;14.45;5.82;;;23.80;91.00;;;;;;5048782;28;20111;-70
2023/06/12 09:28:03;;;;;;;14.55;6.10;;;23.80;91.20;;;;;;5064976;28;20045;-63
2023/06/12 09:30:33;;;;;;;11.50;6.15;;;23.80;91.10;;;;;;5048291;28;20083;-68
2023/06/12 09:33:03;;;;;;;18.20;6.45;;;23.90;91.60;;;;;;5064073;28;20105;-68
2023/06/12 09:35:28;;;;;;;12.13;5.72;;;23.90;91.50;;;;;;5064039;28;20124;-67
2023/06/12 09:37:58;;;;;;;14.10;6.22;;;24.10;91.10;;;;;;5064029;28;20567;-67
2023/06/12 09:40:24;;;;;;;13.32;5.68;;;24.20;90.70;;;;;;5047415;28;20071;-67
2023/06/12 09:42:49;;;;;;;12.85;5.50;;;24.20;90.00;;;;;;5064506;28;20032;-66
2023/06/12 09:45:17;;;;;;;13.85;5.43;;;24.30;90.00;;;;;;5077929;28;20035;-63
2023/06/12 09:47:45;;;;;;;12.63;5.45;;;24.40;90.30;;;;;;5063536;28;20048;-64
2023/06/12 09:50:12;;;;;;;12.75;5.78;;;24.50;89.00;;;;;;5064121;28;20047;-64
2023/06/12 09:52:40;;;;;;;11.82;5.60;;;24.60;89.80;;;;;;5062284;28;20136;-65
2023/06/12 09:55:07;;;;;;;15.05;6.20;;;24.60;90.00;;;;;;5047862;28;20048;-66
2023/06/12 09:57:37;;;;;;;11.13;5.80;;;24.70;89.80;;;;;;5067443;28;20087;-65
2023/06/12 10:00:08;;;;;;;11.55;5.90;;;24.70;90.20;;;;;;5062258;28;20058;-65
2023/06/12 10:02:36;;;;;;;13.93;5.85;;;24.80;90.70;;;;;;5063749;28;20515;-66
2023/06/12 10:05:16;;;;;;;10.88;6.57;;;24.90;90.20;;;;;;5063534;28;20082;-64
2023/06/12 10:07:47;;;;;;;13.20;6.57;;;24.90;89.00;;;;;;5062420;28;20290;-67
2023/06/12 10:10:14;;;;;;;11.98;6.45;;;25.00;89.70;;;;;;5047422;28;20275;-65
2023/06/12 10:12:41;;;;;;;14.75;5.72;;;25.10;89.00;;;;;;5064171;28;20123;-69
2023/06/12 10:15:08;;;;;;;10.05;6.03;;;25.20;88.10;;;;;;5063988;28;20048;-69
2023/06/12 10:17:35;;;;;;;22.08;6.70;;;25.10;86.30;;;;;;5063343;28;20079;-69
2023/06/12 10:20:03;;;;;;;10.68;6.60;;;25.20;86.10;;;;;;5070320;28;20036;-65
2023/06/12 10:22:29;;;;;;;10.30;5.68;;;25.30;85.00;;;;;;5052108;28;20044;-67
2023/06/12 10:24:57;;;;;;;9.73;6.05;;;25.40;84.70;;;;;;5077182;28;20032;-66
2023/06/12 10:27:24;;;;;;;11.55;6.82;;;25.40;83.50;;;;;;5063976;28;20190;-65
2023/06/12 10:29:58;;;;;;;10.52;6.43;;;25.50;83.60;;;;;;5047276;28;20041;-68
2023/06/12 10:32:24;;;;;;;13.95;5.85;;;25.60;81.70;;;;;;5062696;28;20052;-64
2023/06/12 10:34:54;;;;;;;10.18;6.00;;;25.60;82.20;;;;;;5069151;28;20031;-65
2023/06/12 10:37:42;;;;;;;12.38;6.32;;;25.70;82.50;;;;;;5050239;28;20148;-67
2023/06/12 10:40:21;;;;;;;12.95;5.72;;;25.90;82.10;;;;;;5068086;28;20108;-65
2023/06/12 10:42:48;;;;;;;9.82;5.70;;;25.90;80.70;;;;;;5050937;28;20111;-69
2023/06/12 10:45:17;;;;;;;11.25;6.05;;;26.10;82.20;;;;;;5069061;28;20032;-67
2023/06/12 10:48:02;;;;;;;20.92;6.45;;;26.30;80.30;;;;;;5065033;28;20052;-67
2023/06/12 10:50:34;;;;;;;15.95;6.43;;;26.40;77.70;;;;;;5055022;28;20066;-66
2023/06/12 10:53:22;;;;;;;13.75;6.18;;;26.40;78.70;;;;;;5070433;28;20055;-65
2023/06/12 10:55:48;;;;;;;13.38;6.55;;;26.50;79.40;;;;;;5074047;28;20032;-68
2023/06/12 10:58:16;;;;;;;11.32;6.07;;;26.60;77.60;;;;;;5060595;28;20109;-69
2023/06/12 11:00:51;;;;;;;10.13;6.20;;;26.70;77.60;;;;;;5070823;28;20056;-67
2023/06/12 11:03:28;;;;;;;10.48;6.25;;;26.70;76.80;;;;;;5055441;28;20570;-66
2023/06/12 11:06:08;;;;;;;15.80;6.47;;;26.80;77.00;;;;;;5064136;28;20814;-68
2023/06/12 11:08:34;;;;;;;15.77;6.20;;;27.00;79.00;;;;;;5046360;28;20044;-67
2023/06/12 11:11:20;;;;;;;11.93;6.57;;;27.20;77.20;;;;;;5052787;28;21023;-67
2023/06/12 11:13:46;;;;;;;10.60;5.57;;;27.40;76.90;;;;;;5067304;28;20052;-69
2023/06/12 11:16:17;;;;;;;12.23;5.88;;;27.40;75.80;;;;;;5045921;28;20136;-68
2023/06/12 11:18:43;;;;;;;10.52;6.03;;;27.40;74.40;;;;;;5066163;28;20068;-67
2023/06/12 11:21:10;;;;;;;12.77;6.43;;;27.40;73.60;;;;;;5074883;28;20047;-69
2023/06/12 11:23:40;;;;;;;11.90;6.57;;;27.40;73.20;;;;;;5066904;28;20080;-68
2023/06/12 11:26:07;;;;;;;9.98;5.90;;;27.50;72.40;;;;;;5080476;28;20114;-63
2023/06/12 11:28:34;;;;;;;11.18;6.00;;;27.50;72.30;;;;;;5067586;28;20076;-68
2023/06/12 11:31:02;;;;;;;11.43;5.80;;;27.50;71.90;;;;;;5069424;28;20110;-68
2023/06/12 11:33:31;;;;;;;8.77;5.60;;;27.50;72.60;;;;;;5065620;28;20097;-65
2023/06/12 11:35:58;;;;;;;11.85;6.32;;;27.60;72.30;;;;;;5065224;28;20040;-67
2023/06/12 11:38:24;;;;;;;12.85;6.45;;;27.70;70.50;;;;;;5067355;28;20055;-68
2023/06/12 11:40:51;;;;;;;12.95;6.63;;;27.70;69.80;;;;;;5077453;28;20067;-66
2023/06/12 11:43:24;;;;;;;12.43;6.07;;;27.70;69.00;;;;;;5082361;28;20048;-68
2023/06/12 11:45:52;;;;;;;8.70;5.57;;;27.90;69.00;;;;;;5082431;28;20105;-67
2023/06/12 11:48:18;;;;;;;9.93;6.43;;;28.10;69.70;;;;;;5075394;28;20128;-66
2023/06/12 11:50:46;;;;;;;9.88;5.95;;;28.20;68.30;;;;;;5066762;28;20507;-67
2023/06/12 11:53:12;;;;;;;10.48;6.40;;;28.30;69.00;;;;;;5066579;28;20119;-66
2023/06/12 11:55:38;;;;;;;10.82;6.30;;;28.40;68.20;;;;;;5050403;28;20044;-66
2023/06/12 11:58:04;;;;;;;12.05;6.32;;;28.40;68.10;;;;;;5075350;28;20185;-66
2023/06/12 12:00:32;;;;;;;10.77;5.78;;;28.40;67.70;;;;;;5067509;28;20050;-67
2023/06/12 12:03:01;;;;;;;21.80;6.70;;;28.50;67.70;;;;;;5085217;28;20122;-68
2023/06/12 12:05:31;;;;;;;10.07;5.60;;;28.70;68.20;;;;;;5081813;28;20503;-68
2023/06/12 12:07:59;;;;;;;14.05;6.65;;;28.60;68.70;;;;;;5056090;28;20099;-67
2023/06/12 12:10:26;;;;;;;9.38;6.10;;;28.30;68.00;;;;;;5074512;28;20091;-66
2023/06/12 12:13:00;;;;;;;14.05;6.28;;;28.20;67.80;;;;;;5076516;28;20075;-71
2023/06/12 12:15:28;;;;;;;10.38;5.90;;;28.10;68.00;;;;;;5066026;28;20121;-68
2023/06/12 12:17:53;;;;;;;9.40;6.15;;;28.30;68.60;;;;;;5084116;28;20043;-69
2023/06/12 12:20:21;;;;;;;11.77;6.38;;;28.50;68.00;;;;;;5083425;28;20395;-66
2023/06/12 12:22:49;;;;;;;12.20;6.45;;;28.70;67.40;;;;;;5075873;28;20272;-67
2023/06/12 12:25:21;;;;;;;11.38;6.28;;;28.60;66.00;;;;;;5081833;28;20555;-68
2023/06/12 12:27:49;;;;;;;9.05;6.38;;;28.60;65.90;;;;;;5085004;28;20032;-64
2023/06/12 12:30:16;;;;;;;12.07;6.90;;;28.50;65.50;;;;;;5074888;28;20487;-64
2023/06/12 12:32:47;;;;;;;12.52;6.75;;;28.50;65.30;;;;;;5062893;28;20079;-66
2023/06/12 12:35:14;;;;;;;13.57;6.40;;;28.50;65.30;;;;;;5074117;28;20028;-70
2023/06/12 12:37:40;;;;;;;9.93;6.43;;;28.40;65.90;;;;;;5081867;28;20131;-67
2023/06/12 12:40:09;;;;;;;13.10;6.35;;;28.40;66.20;;;;;;5085033;28;20674;-67
2023/06/12 12:42:36;;;;;;;9.85;6.57;;;28.40;66.50;;;;;;5081792;28;20054;-65